createdAt,value
2023-05-11T00:01:39.504Z,76.52
2023-05-11T00:04:09.650Z,76.31
2023-05-11T00:06:39.419Z,76.41
2023-05-11T00:09:09.060Z,76.29
2023-05-11T00:11:38.729Z,76.27
2023-05-11T00:14:08.154Z,76.33
2023-05-11T00:16:36.641Z,76.54
2023-05-11T00:19:06.243Z,76.71
2023-05-11T00:21:40.478Z,76.75
2023-05-11T00:24:10.457Z,76.45
2023-05-11T00:26:49.118Z,76.85
2023-05-11T00:29:18.769Z,76.73
2023-05-11T00:31:47.809Z,76.45
2023-05-11T00:34:18.727Z,76.49
2023-05-11T00:36:47.232Z,76.62
2023-05-11T00:39:17.034Z,76.76
2023-05-11T00:41:45.750Z,76.79
2023-05-11T00:44:16.239Z,77.17
2023-05-11T00:46:44.586Z,77.35
2023-05-11T00:49:16.565Z,77.14
2023-05-11T00:51:46.388Z,77.03
2023-05-11T00:54:17.400Z,76.92
2023-05-11T00:56:45.819Z,77.06
2023-05-11T00:59:14.853Z,77.02
2023-05-11T01:01:44.437Z,77.04
2023-05-11T01:04:13.699Z,76.93
2023-05-11T01:07:06.385Z,76.92
2023-05-11T01:10:12.374Z,77.06
2023-05-11T01:13:15.356Z,77.13
2023-05-11T01:15:54.653Z,77.22
2023-05-11T01:18:43.472Z,77.24
2023-05-11T01:21:17.655Z,77.47
2023-05-11T01:24:09.049Z,77.52
2023-05-11T01:27:12.570Z,77.68
2023-05-11T01:29:57.525Z,77.88
2023-05-11T01:32:33.242Z,78.00
2023-05-11T01:35:21.717Z,78.20
2023-05-11T01:37:58.429Z,78.10
2023-05-11T01:40:31.843Z,78.44
2023-05-11T01:43:13.319Z,78.36
2023-05-11T01:45:47.804Z,78.86
2023-05-11T01:48:24.885Z,79.12
2023-05-11T01:50:58.462Z,79.23
2023-05-11T01:53:34.556Z,79.19
2023-05-11T01:56:03.476Z,79.39
2023-05-11T01:58:36.010Z,79.81
2023-05-11T02:01:04.687Z,79.53
2023-05-11T02:03:37.786Z,79.46
2023-05-11T02:06:08.239Z,79.65
2023-05-11T02:08:39.165Z,79.68
2023-05-11T02:11:10.669Z,79.82
2023-05-11T02:13:44.635Z,79.71
2023-05-11T02:16:16.658Z,79.67
2023-05-11T02:18:47.499Z,79.81
2023-05-11T02:21:17.035Z,80.07
2023-05-11T02:23:47.682Z,79.99
2023-05-11T02:26:18.338Z,79.85
2023-05-11T02:28:46.626Z,80.01
2023-05-11T02:31:24.848Z,80.30
2023-05-11T02:34:04.061Z,80.41
2023-05-11T02:36:39.774Z,80.58
2023-05-11T02:39:13.622Z,80.25
2023-05-11T02:41:45.636Z,80.40
2023-05-11T02:44:17.253Z,80.32
2023-05-11T02:46:48.392Z,80.37
2023-05-11T02:49:20.525Z,80.65
2023-05-11T02:51:50.535Z,80.48
2023-05-11T02:54:20.329Z,80.37
2023-05-11T02:56:52.925Z,80.37
2023-05-11T02:59:28.009Z,80.58
2023-05-11T03:02:00.366Z,80.60
2023-05-11T03:04:28.848Z,80.68
2023-05-11T03:06:58.264Z,80.89
2023-05-11T03:09:28.598Z,80.97
2023-05-11T03:11:59.081Z,80.92
2023-05-11T03:14:31.932Z,80.92
2023-05-11T03:17:03.295Z,81.05
2023-05-11T03:19:38.078Z,81.26
2023-05-11T03:22:07.093Z,81.07
2023-05-11T03:24:35.992Z,80.89
2023-05-11T03:27:07.936Z,80.79
2023-05-11T03:29:39.563Z,80.80
2023-05-11T03:32:09.387Z,80.74
2023-05-11T03:34:39.662Z,80.63
2023-05-11T03:37:10.868Z,80.79
2023-05-11T03:39:41.216Z,81.18
2023-05-11T03:42:13.463Z,80.84
2023-05-11T03:44:46.927Z,80.80
2023-05-11T03:47:19.987Z,80.94
2023-05-11T03:49:51.076Z,81.17
2023-05-11T03:52:23.949Z,81.15
2023-05-11T03:54:54.477Z,80.99
2023-05-11T03:57:25.590Z,80.90
2023-05-11T03:59:55.874Z,80.98
2023-05-11T04:02:24.681Z,80.78
2023-05-11T04:04:53.090Z,81.13
2023-05-11T04:07:21.704Z,81.17
2023-05-11T04:09:50.041Z,81.09
2023-05-11T04:12:19.077Z,81.36
2023-05-11T04:14:47.228Z,81.50
2023-05-11T04:17:17.749Z,81.51
2023-05-11T04:19:47.328Z,81.59
2023-05-11T04:22:15.818Z,81.46
2023-05-11T04:24:44.657Z,81.36
2023-05-11T04:27:22.057Z,81.53
2023-05-11T04:29:51.263Z,81.11
2023-05-11T04:32:20.568Z,80.61
2023-05-11T04:34:48.936Z,80.27
2023-05-11T04:37:21.344Z,79.93
2023-05-11T04:39:50.742Z,79.97
2023-05-11T04:42:19.253Z,79.27
2023-05-11T04:44:54.608Z,78.90
2023-05-11T04:47:23.140Z,79.30
2023-05-11T04:49:56.488Z,79.37
2023-05-11T04:52:27.221Z,79.09
2023-05-11T04:54:55.838Z,78.47
2023-05-11T04:57:24.859Z,78.44
2023-05-11T04:59:55.123Z,78.28
2023-05-11T05:02:24.173Z,77.92
2023-05-11T05:09:02.914Z,77.66
2023-05-11T05:11:34.672Z,77.35
2023-05-11T05:14:09.713Z,77.10
2023-05-11T05:18:21.142Z,76.65
2023-05-11T05:20:57.891Z,75.50
2023-05-11T05:23:32.225Z,75.44
2023-05-11T05:26:00.985Z,75.36
2023-05-11T05:28:30.187Z,74.26
2023-05-11T05:31:00.202Z,74.78
2023-05-11T05:33:29.810Z,74.04
2023-05-11T05:36:01.332Z,72.96
2023-05-11T05:38:32.618Z,72.70
2023-05-11T05:41:04.895Z,72.70
2023-05-11T05:43:36.544Z,72.78
2023-05-11T05:46:05.701Z,71.71
2023-05-11T05:48:35.648Z,71.20
2023-05-11T05:51:04.052Z,70.15
2023-05-11T05:53:33.080Z,69.98
2023-05-11T05:56:02.022Z,69.67
2023-05-11T05:58:32.268Z,68.66
2023-05-11T06:01:01.152Z,68.97
2023-05-11T06:03:29.995Z,69.24
2023-05-11T06:06:01.580Z,68.80
2023-05-11T06:08:31.024Z,67.97
2023-05-11T06:10:59.980Z,68.46
2023-05-11T06:13:29.244Z,68.46
2023-05-11T06:15:58.011Z,68.45
2023-05-11T06:18:29.885Z,68.10
2023-05-11T06:21:03.388Z,67.43
2023-05-11T06:23:34.035Z,67.58
2023-05-11T06:26:24.583Z,66.95
2023-05-11T06:28:53.284Z,66.43
2023-05-11T06:31:23.819Z,67.25
2023-05-11T06:34:09.029Z,67.28
2023-05-11T06:36:37.955Z,67.67
2023-05-11T06:39:07.274Z,66.63
2023-05-11T06:41:36.143Z,67.50
2023-05-11T06:44:05.714Z,66.87
2023-05-11T06:46:39.695Z,65.66
2023-05-11T06:49:08.435Z,63.94
2023-05-11T06:51:37.524Z,64.89
2023-05-11T06:54:07.335Z,66.65
2023-05-11T06:56:39.546Z,63.90
2023-05-11T06:59:15.499Z,60.83
2023-05-11T07:01:46.745Z,60.73
2023-05-11T07:04:16.098Z,59.90
2023-05-11T07:06:45.170Z,59.76
2023-05-11T07:09:16.597Z,59.75
2023-05-11T07:11:48.284Z,59.37
2023-05-11T07:14:17.448Z,59.57
2023-05-11T07:16:48.131Z,58.57
2023-05-11T07:19:17.469Z,58.53
2023-05-11T07:21:50.098Z,57.32
2023-05-11T07:24:23.888Z,55.82
2023-05-11T07:26:52.411Z,56.60
2023-05-11T07:29:24.042Z,56.27
2023-05-11T07:31:52.304Z,54.90
2023-05-11T07:34:20.571Z,55.65
2023-05-11T07:36:52.032Z,56.52
2023-05-11T07:39:21.911Z,56.24
2023-05-11T07:41:50.148Z,52.42
2023-05-11T07:44:18.556Z,53.14
2023-05-11T07:46:50.523Z,53.14
2023-05-11T07:49:25.498Z,52.16
2023-05-11T07:52:03.729Z,52.91
2023-05-11T07:54:33.129Z,51.57
2023-05-11T07:57:03.926Z,51.59
2023-05-11T07:59:43.899Z,51.40
2023-05-11T08:02:16.504Z,50.17
2023-05-11T08:04:49.365Z,51.15
2023-05-11T08:07:25.647Z,49.84
2023-05-11T08:09:56.472Z,48.91
2023-05-11T08:12:31.469Z,49.35
2023-05-11T08:15:05.395Z,49.24
2023-05-11T08:17:36.036Z,49.88
2023-05-11T08:20:06.219Z,48.84
2023-05-11T08:22:35.363Z,48.98
2023-05-11T08:25:07.537Z,48.19
2023-05-11T08:27:42.376Z,47.81
2023-05-11T08:30:12.133Z,47.01
2023-05-11T08:35:13.892Z,47.81
2023-05-11T08:38:26.922Z,47.11
2023-05-11T08:40:55.710Z,46.95
2023-05-11T08:43:37.632Z,46.90
2023-05-11T08:46:15.197Z,46.78
2023-05-11T08:48:47.022Z,46.24
2023-05-11T08:51:17.572Z,46.36
2023-05-11T08:53:47.374Z,45.91
2023-05-11T08:56:24.465Z,46.27
2023-05-11T08:59:24.348Z,45.98
2023-05-11T09:01:54.857Z,45.46
2023-05-11T09:04:24.117Z,45.64
2023-05-11T09:06:53.003Z,45.12
2023-05-11T09:09:22.240Z,45.36
2023-05-11T09:11:54.047Z,45.16
2023-05-11T09:16:59.220Z,46.14
2023-05-11T09:19:31.219Z,45.22
2023-05-11T09:22:00.029Z,43.55
2023-05-11T09:24:29.241Z,42.44
2023-05-11T09:27:11.061Z,43.17
2023-05-11T09:29:39.763Z,42.06
2023-05-11T09:32:12.378Z,42.39
2023-05-11T09:35:32.799Z,42.17
2023-05-11T13:31:02.853Z,33.88
2023-05-11T13:33:34.276Z,33.78
2023-05-11T13:36:05.377Z,33.57
2023-05-11T13:38:33.631Z,34.23
2023-05-11T13:41:03.096Z,32.44
2023-05-11T13:44:17.098Z,32.97
2023-05-11T13:46:54.135Z,33.84
2023-05-11T13:49:33.192Z,32.21
2023-05-11T13:52:26.241Z,32.03
2023-05-11T13:55:09.475Z,31.47
2023-05-11T13:57:58.765Z,30.56
2023-05-11T14:00:39.531Z,29.80
2023-05-11T14:03:09.895Z,29.71
2023-05-11T14:05:41.103Z,29.66
2023-05-11T14:08:13.768Z,29.45
2023-05-11T14:10:50.996Z,29.97
2023-05-11T14:13:20.436Z,29.83
2023-05-11T14:15:57.083Z,29.38
2023-05-11T14:18:51.815Z,29.45
2023-05-11T14:21:36.519Z,29.79
2023-05-11T14:24:12.078Z,30.30
2023-05-11T14:26:43.170Z,30.79
2023-05-11T14:29:12.434Z,30.17
2023-05-11T14:31:41.465Z,30.01
2023-05-11T14:34:09.899Z,29.75
2023-05-11T14:36:39.958Z,29.77
2023-05-11T14:39:08.440Z,30.74
2023-05-11T14:41:37.088Z,31.18
2023-05-11T14:44:08.149Z,30.87
2023-05-11T14:46:40.525Z,31.18
2023-05-11T14:49:13.541Z,31.02
2023-05-11T14:51:41.656Z,31.24
2023-05-11T14:54:14.326Z,32.14
2023-05-11T14:56:42.481Z,32.40
2023-05-11T14:59:12.547Z,33.77
2023-05-11T15:02:09.996Z,34.38
2023-05-11T15:04:43.313Z,34.01
2023-05-11T15:07:18.330Z,33.90
2023-05-11T15:09:58.991Z,34.69
2023-05-11T15:12:33.766Z,35.44
2023-05-11T15:15:02.977Z,35.56
2023-05-11T15:17:35.878Z,35.65
2023-05-11T15:20:05.846Z,35.63
2023-05-11T15:22:34.579Z,35.89
2023-05-11T15:25:05.770Z,35.69
2023-05-11T15:27:34.173Z,36.18
2023-05-11T15:30:03.413Z,36.93
2023-05-11T15:32:41.512Z,37.41
2023-05-11T15:35:09.729Z,38.41
2023-05-11T15:37:38.218Z,39.25
2023-05-11T15:40:08.043Z,40.05
2023-05-11T15:42:44.645Z,40.26
2023-05-11T15:45:14.807Z,40.55
2023-05-11T15:47:43.155Z,40.90
2023-05-11T15:50:12.625Z,40.76
2023-05-11T15:52:41.191Z,41.52
2023-05-11T15:55:09.421Z,42.03
2023-05-11T15:57:41.234Z,42.16
2023-05-11T16:00:10.896Z,41.99
2023-05-11T16:02:48.479Z,42.47
2023-05-11T16:06:12.700Z,42.48
2023-05-11T16:08:41.739Z,42.28
2023-05-11T16:11:20.500Z,42.66
2023-05-11T16:13:52.061Z,43.49
2023-05-11T16:16:46.242Z,44.35
2023-05-11T16:19:16.592Z,44.72
2023-05-11T16:22:11.802Z,44.74
2023-05-11T16:25:26.480Z,44.88
2023-05-11T16:28:04.035Z,45.04
2023-05-11T16:30:38.827Z,45.52
2023-05-11T16:33:11.715Z,45.46
2023-05-11T16:36:14.810Z,46.15
2023-05-11T16:39:31.852Z,46.32
2023-05-11T16:43:03.055Z,46.65
2023-05-11T16:46:53.368Z,47.07
2023-05-11T16:53:47.401Z,48.05
2023-05-11T17:13:49.145Z,50.30
